Lake Ronkonkoma Heights, New York
Current Conditions -  °F | °C
As of 7:56 PM on Monday 26 Jan 2015 (Local Time) from KISP Reporting Station
Light Snow Light Snow  
Wind Chill: 12°   Ceiling: 1000
Heat Index: 27°   Visibility: 0.75mi
Dew Point: 23°   Wind: 26mph
Humidity: 85%   Direction: 30°NNE
Pressure: 29.75"   Gusts: 40mph
Location:  40.8149°N, 73.1229°W
Report Text: KISP 270056Z 03023G35KT 3/4SM R06/6000VP6000FT -SN BR VV010 M03/M05 A2975 RMK AO2 PK WND 04037/0042 SLP074 PRESENT WX DRSN P0001 T10281050
Loading
Personal Weather Stations






























Interactive Weather Map New forecast layout! Learn more

10-Day Weather Forecast

Advertisements
Track Severe Weather on mobile